Creston, Wyoming
Current Conditions -  °F | °C
As of 10:53 AM on Saturday 25 Oct 2014 (Local Time) from KRWL Reporting Station
Clear Clear  
Wind Chill: 66°   Ceiling: Unl
Heat Index: 66°   Visibility: 10mi
Dew Point: 27°   Wind: 18mph
Humidity: 23%   Direction: 190°S
Pressure: 30.25"   Gusts: 22mph
Location:  41.7532°N, 107.372°W
Report Text: KRWL 251653Z AUTO 19016G19KT 10SM CLR 19/M03 A3025 RMK AO2 SLP173 T01891028
Loading
Personal Weather Stations






























Interactive Weather Map
Tropical Storm Tracking
New forecast layout! Learn more

10-Day Weather Forecast

Advertisements
Track Severe Weather on mobile